sensor_id;sensor_type;location;lat;lon;timestamp;P1;durP1;ratioP1;P2;durP2;ratioP2
14167;SDS011;7163;50.626;12.922;2023-04-24T00:00:29;3.83;;;3.07;;
14167;SDS011;7163;50.626;12.922;2023-04-24T00:05:41;4.27;;;3.07;;
14167;SDS011;7163;50.626;12.922;2023-04-24T00:10:42;3.80;;;3.13;;
14167;SDS011;7163;50.626;12.922;2023-04-24T00:15:43;5.17;;;3.43;;
14167;SDS011;7163;50.626;12.922;2023-04-24T00:20:43;5.70;;;3.80;;
14167;SDS011;7163;50.626;12.922;2023-04-24T00:25:43;3.87;;;2.93;;
14167;SDS011;7163;50.626;12.922;2023-04-24T00:30:44;5.57;;;2.70;;
14167;SDS011;7163;50.626;12.922;2023-04-24T00:35:44;5.37;;;2.53;;
14167;SDS011;7163;50.626;12.922;2023-04-24T00:40:45;3.80;;;2.53;;
14167;SDS011;7163;50.626;12.922;2023-04-24T00:45:45;2.30;;;2.10;;
14167;SDS011;7163;50.626;12.922;2023-04-24T00:50:46;3.03;;;2.20;;
14167;SDS011;7163;50.626;12.922;2023-04-24T00:55:47;4.43;;;2.30;;
14167;SDS011;7163;50.626;12.922;2023-04-24T01:00:48;4.67;;;2.10;;
14167;SDS011;7163;50.626;12.922;2023-04-24T01:05:50;3.13;;;2.00;;
14167;SDS011;7163;50.626;12.922;2023-04-24T01:10:51;3.47;;;2.20;;
14167;SDS011;7163;50.626;12.922;2023-04-24T01:15:52;2.80;;;2.00;;
14167;SDS011;7163;50.626;12.922;2023-04-24T01:20:53;2.03;;;1.80;;
14167;SDS011;7163;50.626;12.922;2023-04-24T01:25:54;3.83;;;2.00;;
14167;SDS011;7163;50.626;12.922;2023-04-24T01:30:55;3.33;;;1.70;;
14167;SDS011;7163;50.626;12.922;2023-04-24T01:35:55;2.30;;;2.10;;
14167;SDS011;7163;50.626;12.922;2023-04-24T01:40:56;2.10;;;1.87;;
14167;SDS011;7163;50.626;12.922;2023-04-24T01:45:56;5.07;;;2.00;;
14167;SDS011;7163;50.626;12.922;2023-04-24T01:50:57;2.67;;;2.00;;
14167;SDS011;7163;50.626;12.922;2023-04-24T01:55:57;2.97;;;2.10;;
14167;SDS011;7163;50.626;12.922;2023-04-24T02:00:58;4.10;;;2.40;;
14167;SDS011;7163;50.626;12.922;2023-04-24T02:06:01;4.93;;;2.10;;
14167;SDS011;7163;50.626;12.922;2023-04-24T02:11:01;4.13;;;2.00;;
14167;SDS011;7163;50.626;12.922;2023-04-24T02:16:02;2.73;;;2.10;;
14167;SDS011;7163;50.626;12.922;2023-04-24T02:21:02;2.30;;;2.10;;
14167;SDS011;7163;50.626;12.922;2023-04-24T02:26:03;3.13;;;2.30;;
14167;SDS011;7163;50.626;12.922;2023-04-24T02:31:03;3.40;;;2.40;;
14167;SDS011;7163;50.626;12.922;2023-04-24T02:36:05;2.40;;;2.10;;
14167;SDS011;7163;50.626;12.922;2023-04-24T02:41:05;4.70;;;2.33;;
14167;SDS011;7163;50.626;12.922;2023-04-24T02:46:06;3.53;;;2.03;;
14167;SDS011;7163;50.626;12.922;2023-04-24T02:51:07;3.27;;;2.50;;
14167;SDS011;7163;50.626;12.922;2023-04-24T02:56:08;3.70;;;2.43;;
14167;SDS011;7163;50.626;12.922;2023-04-24T03:01:08;4.53;;;2.23;;
14167;SDS011;7163;50.626;12.922;2023-04-24T03:06:10;4.93;;;2.67;;
14167;SDS011;7163;50.626;12.922;2023-04-24T03:11:10;3.70;;;2.40;;
14167;SDS011;7163;50.626;12.922;2023-04-24T03:16:11;2.97;;;2.50;;
14167;SDS011;7163;50.626;12.922;2023-04-24T03:21:11;3.60;;;2.37;;
14167;SDS011;7163;50.626;12.922;2023-04-24T03:26:11;4.20;;;2.80;;
14167;SDS011;7163;50.626;12.922;2023-04-24T03:31:12;3.83;;;2.37;;
14167;SDS011;7163;50.626;12.922;2023-04-24T03:36:12;2.43;;;2.20;;
14167;SDS011;7163;50.626;12.922;2023-04-24T03:41:13;3.23;;;2.77;;
14167;SDS011;7163;50.626;12.922;2023-04-24T03:46:13;2.40;;;2.20;;
14167;SDS011;7163;50.626;12.922;2023-04-24T03:51:15;3.53;;;2.70;;
14167;SDS011;7163;50.626;12.922;2023-04-24T03:56:15;2.73;;;2.30;;
14167;SDS011;7163;50.626;12.922;2023-04-24T04:01:15;5.10;;;2.30;;
14167;SDS011;7163;50.626;12.922;2023-04-24T04:06:16;3.43;;;2.37;;
14167;SDS011;7163;50.626;12.922;2023-04-24T04:11:16;4.70;;;2.70;;
14167;SDS011;7163;50.626;12.922;2023-04-24T04:16:17;5.17;;;2.70;;
14167;SDS011;7163;50.626;12.922;2023-04-24T04:21:17;5.07;;;2.30;;
14167;SDS011;7163;50.626;12.922;2023-04-24T04:26:18;5.23;;;2.17;;
14167;SDS011;7163;50.626;12.922;2023-04-24T04:31:22;5.57;;;2.27;;
14167;SDS011;7163;50.626;12.922;2023-04-24T04:36:23;6.57;;;2.60;;
14167;SDS011;7163;50.626;12.922;2023-04-24T04:41:24;3.80;;;2.30;;
14167;SDS011;7163;50.626;12.922;2023-04-24T04:46:25;4.93;;;2.20;;
14167;SDS011;7163;50.626;12.922;2023-04-24T04:51:26;4.23;;;2.30;;
14167;SDS011;7163;50.626;12.922;2023-04-24T04:56:26;4.80;;;2.00;;
14167;SDS011;7163;50.626;12.922;2023-04-24T05:01:26;4.97;;;2.27;;
14167;SDS011;7163;50.626;12.922;2023-04-24T05:06:27;6.47;;;2.37;;
14167;SDS011;7163;50.626;12.922;2023-04-24T05:11:28;14.80;;;2.73;;
14167;SDS011;7163;50.626;12.922;2023-04-24T05:16:28;5.10;;;2.10;;
14167;SDS011;7163;50.626;12.922;2023-04-24T05:21:29;4.67;;;2.47;;
14167;SDS011;7163;50.626;12.922;2023-04-24T05:26:31;3.73;;;2.03;;
14167;SDS011;7163;50.626;12.922;2023-04-24T05:31:31;3.53;;;1.77;;
14167;SDS011;7163;50.626;12.922;2023-04-24T05:36:32;4.70;;;2.00;;
14167;SDS011;7163;50.626;12.922;2023-04-24T05:41:32;1.97;;;1.57;;
14167;SDS011;7163;50.626;12.922;2023-04-24T05:46:33;1.80;;;1.70;;
14167;SDS011;7163;50.626;12.922;2023-04-24T05:51:33;7.03;;;1.80;;
14167;SDS011;7163;50.626;12.922;2023-04-24T05:56:33;3.03;;;1.73;;
14167;SDS011;7163;50.626;12.922;2023-04-24T06:01:34;2.10;;;1.40;;
14167;SDS011;7163;50.626;12.922;2023-04-24T06:06:36;5.50;;;2.30;;
14167;SDS011;7163;50.626;12.922;2023-04-24T06:11:36;3.47;;;1.80;;
14167;SDS011;7163;50.626;12.922;2023-04-24T06:16:37;2.57;;;1.70;;
14167;SDS011;7163;50.626;12.922;2023-04-24T06:21:39;4.20;;;1.70;;
14167;SDS011;7163;50.626;12.922;2023-04-24T06:26:47;2.47;;;1.80;;
14167;SDS011;7163;50.626;12.922;2023-04-24T06:31:48;1.67;;;1.40;;
14167;SDS011;7163;50.626;12.922;2023-04-24T06:36:50;2.57;;;1.57;;
14167;SDS011;7163;50.626;12.922;2023-04-24T06:41:55;1.97;;;1.40;;
14167;SDS011;7163;50.626;12.922;2023-04-24T06:46:56;1.20;;;1.10;;
14167;SDS011;7163;50.626;12.922;2023-04-24T06:51:56;2.10;;;1.57;;
14167;SDS011;7163;50.626;12.922;2023-04-24T06:56:57;3.30;;;1.63;;
14167;SDS011;7163;50.626;12.922;2023-04-24T07:02:04;3.13;;;1.87;;
14167;SDS011;7163;50.626;12.922;2023-04-24T07:07:31;2.03;;;1.50;;
14167;SDS011;7163;50.626;12.922;2023-04-24T07:12:32;2.70;;;1.50;;
14167;SDS011;7163;50.626;12.922;2023-04-24T07:17:33;4.57;;;1.50;;
14167;SDS011;7163;50.626;12.922;2023-04-24T07:22:34;1.90;;;1.50;;
14167;SDS011;7163;50.626;12.922;2023-04-24T07:27:53;3.67;;;1.60;;
14167;SDS011;7163;50.626;12.922;2023-04-24T07:33:13;5.00;;;1.60;;
14167;SDS011;7163;50.626;12.922;2023-04-24T07:38:14;7.60;;;2.00;;
14167;SDS011;7163;50.626;12.922;2023-04-24T07:43:14;3.47;;;1.40;;
14167;SDS011;7163;50.626;12.922;2023-04-24T07:48:14;3.13;;;2.07;;
14167;SDS011;7163;50.626;12.922;2023-04-24T07:53:16;5.47;;;1.53;;
14167;SDS011;7163;50.626;12.922;2023-04-24T07:58:16;1.63;;;1.53;;
14167;SDS011;7163;50.626;12.922;2023-04-24T08:03:17;3.07;;;1.50;;
14167;SDS011;7163;50.626;12.922;2023-04-24T08:08:21;1.63;;;1.40;;
14167;SDS011;7163;50.626;12.922;2023-04-24T08:13:25;4.03;;;1.50;;
14167;SDS011;7163;50.626;12.922;2023-04-24T08:18:26;3.03;;;1.47;;
14167;SDS011;7163;50.626;12.922;2023-04-24T08:23:27;3.07;;;1.60;;
14167;SDS011;7163;50.626;12.922;2023-04-24T08:28:29;3.70;;;1.23;;
14167;SDS011;7163;50.626;12.922;2023-04-24T08:33:29;1.77;;;1.40;;
14167;SDS011;7163;50.626;12.922;2023-04-24T08:38:34;2.97;;;1.40;;
14167;SDS011;7163;50.626;12.922;2023-04-24T08:43:35;3.60;;;1.43;;
14167;SDS011;7163;50.626;12.922;2023-04-24T08:48:36;3.70;;;2.03;;
14167;SDS011;7163;50.626;12.922;2023-04-24T08:53:40;5.73;;;1.40;;
14167;SDS011;7163;50.626;12.922;2023-04-24T08:58:40;4.73;;;1.40;;
14167;SDS011;7163;50.626;12.922;2023-04-24T09:03:43;2.67;;;1.40;;
14167;SDS011;7163;50.626;12.922;2023-04-24T09:08:44;1.90;;;1.33;;
14167;SDS011;7163;50.626;12.922;2023-04-24T09:13:45;1.77;;;1.40;;
14167;SDS011;7163;50.626;12.922;2023-04-24T09:18:46;2.10;;;1.50;;
14167;SDS011;7163;50.626;12.922;2023-04-24T09:23:57;2.27;;;1.50;;
14167;SDS011;7163;50.626;12.922;2023-04-24T09:28:59;1.53;;;1.43;;
14167;SDS011;7163;50.626;12.922;2023-04-24T09:34:01;1.20;;;1.20;;
14167;SDS011;7163;50.626;12.922;2023-04-24T09:39:09;2.63;;;1.37;;
14167;SDS011;7163;50.626;12.922;2023-04-24T09:44:14;1.53;;;1.30;;
14167;SDS011;7163;50.626;12.922;2023-04-24T09:49:16;1.50;;;1.40;;
14167;SDS011;7163;50.626;12.922;2023-04-24T09:54:21;1.47;;;1.30;;
14167;SDS011;7163;50.626;12.922;2023-04-24T09:59:22;2.63;;;1.37;;
14167;SDS011;7163;50.626;12.922;2023-04-24T10:04:23;7.73;;;1.50;;
14167;SDS011;7163;50.626;12.922;2023-04-24T10:09:26;3.87;;;1.50;;
14167;SDS011;7163;50.626;12.922;2023-04-24T10:14:26;3.47;;;1.57;;
14167;SDS011;7163;50.626;12.922;2023-04-24T10:19:27;3.20;;;1.70;;
14167;SDS011;7163;50.626;12.922;2023-04-24T10:24:29;1.53;;;1.40;;
14167;SDS011;7163;50.626;12.922;2023-04-24T10:29:31;1.20;;;1.20;;
14167;SDS011;7163;50.626;12.922;2023-04-24T10:34:33;2.60;;;1.48;;
14167;SDS011;7163;50.626;12.922;2023-04-24T10:39:33;1.52;;;1.40;;
14167;SDS011;7163;50.626;12.922;2023-04-24T10:44:36;1.83;;;1.30;;
14167;SDS011;7163;50.626;12.922;2023-04-24T10:49:36;3.05;;;1.42;;
14167;SDS011;7163;50.626;12.922;2023-04-24T10:59:40;3.30;;;1.55;;
14167;SDS011;7163;50.626;12.922;2023-04-24T11:04:41;2.05;;;1.67;;
14167;SDS011;7163;50.626;12.922;2023-04-24T11:09:43;2.77;;;1.77;;
14167;SDS011;7163;50.626;12.922;2023-04-24T11:20:10;2.07;;;1.40;;
14167;SDS011;7163;50.626;12.922;2023-04-24T11:25:11;2.67;;;1.60;;
14167;SDS011;7163;50.626;12.922;2023-04-24T11:30:12;2.57;;;1.90;;
14167;SDS011;7163;50.626;12.922;2023-04-24T11:35:18;1.80;;;1.70;;
14167;SDS011;7163;50.626;12.922;2023-04-24T11:40:20;2.83;;;1.73;;
14167;SDS011;7163;50.626;12.922;2023-04-24T11:45:26;2.20;;;1.60;;
14167;SDS011;7163;50.626;12.922;2023-04-24T11:50:30;2.70;;;1.80;;
14167;SDS011;7163;50.626;12.922;2023-04-24T11:55:31;1.70;;;1.60;;
14167;SDS011;7163;50.626;12.922;2023-04-24T12:00:32;2.13;;;1.80;;
14167;SDS011;7163;50.626;12.922;2023-04-24T12:05:37;2.20;;;1.50;;
14167;SDS011;7163;50.626;12.922;2023-04-24T12:10:38;2.27;;;1.60;;
14167;SDS011;7163;50.626;12.922;2023-04-24T12:15:39;2.38;;;1.45;;
14167;SDS011;7163;50.626;12.922;2023-04-24T12:20:41;1.90;;;1.73;;
14167;SDS011;7163;50.626;12.922;2023-04-24T12:25:41;2.43;;;1.77;;
14167;SDS011;7163;50.626;12.922;2023-04-24T12:30:44;2.10;;;1.50;;
14167;SDS011;7163;50.626;12.922;2023-04-24T12:35:51;2.33;;;1.60;;
14167;SDS011;7163;50.626;12.922;2023-04-24T12:46:06;1.90;;;1.73;;
14167;SDS011;7163;50.626;12.922;2023-04-24T12:51:06;2.88;;;1.45;;
14167;SDS011;7163;50.626;12.922;2023-04-24T12:56:07;5.15;;;2.03;;
14167;SDS011;7163;50.626;12.922;2023-04-24T13:01:08;3.73;;;1.90;;
14167;SDS011;7163;50.626;12.922;2023-04-24T13:06:08;2.42;;;1.80;;
14167;SDS011;7163;50.626;12.922;2023-04-24T13:11:09;3.08;;;1.60;;
14167;SDS011;7163;50.626;12.922;2023-04-24T13:16:09;18.70;;;11.37;;
14167;SDS011;7163;50.626;12.922;2023-04-24T13:21:10;2.30;;;2.10;;
14167;SDS011;7163;50.626;12.922;2023-04-24T13:26:11;10.90;;;6.97;;
14167;SDS011;7163;50.626;12.922;2023-04-24T13:31:11;4.63;;;2.10;;
14167;SDS011;7163;50.626;12.922;2023-04-24T13:36:11;1.67;;;1.58;;
14167;SDS011;7163;50.626;12.922;2023-04-24T13:41:12;2.60;;;1.67;;
14167;SDS011;7163;50.626;12.922;2023-04-24T13:46:13;3.37;;;1.87;;
14167;SDS011;7163;50.626;12.922;2023-04-24T13:51:13;1.97;;;1.70;;
14167;SDS011;7163;50.626;12.922;2023-04-24T13:56:14;5.03;;;1.90;;
14167;SDS011;7163;50.626;12.922;2023-04-24T14:01:15;2.10;;;1.80;;
14167;SDS011;7163;50.626;12.922;2023-04-24T14:06:16;5.00;;;2.60;;
14167;SDS011;7163;50.626;12.922;2023-04-24T14:11:18;5.90;;;3.10;;
14167;SDS011;7163;50.626;12.922;2023-04-24T14:16:19;2.47;;;1.90;;
14167;SDS011;7163;50.626;12.922;2023-04-24T14:21:19;2.77;;;2.13;;
14167;SDS011;7163;50.626;12.922;2023-04-24T14:26:20;2.10;;;1.90;;
14167;SDS011;7163;50.626;12.922;2023-04-24T14:31:20;2.37;;;1.97;;
14167;SDS011;7163;50.626;12.922;2023-04-24T14:36:21;3.07;;;2.00;;
14167;SDS011;7163;50.626;12.922;2023-04-24T14:41:22;2.43;;;2.00;;
14167;SDS011;7163;50.626;12.922;2023-04-24T14:46:25;3.67;;;2.57;;
14167;SDS011;7163;50.626;12.922;2023-04-24T14:51:26;3.57;;;2.50;;
14167;SDS011;7163;50.626;12.922;2023-04-24T14:56:27;2.87;;;2.40;;
14167;SDS011;7163;50.626;12.922;2023-04-24T15:01:28;7.30;;;2.50;;
14167;SDS011;7163;50.626;12.922;2023-04-24T15:06:29;3.87;;;2.57;;
14167;SDS011;7163;50.626;12.922;2023-04-24T15:11:30;3.83;;;2.30;;
14167;SDS011;7163;50.626;12.922;2023-04-24T15:16:32;3.73;;;2.20;;
14167;SDS011;7163;50.626;12.922;2023-04-24T15:21:32;2.60;;;2.10;;
14167;SDS011;7163;50.626;12.922;2023-04-24T15:26:33;3.00;;;2.37;;
14167;SDS011;7163;50.626;12.922;2023-04-24T15:31:34;2.63;;;2.20;;
14167;SDS011;7163;50.626;12.922;2023-04-24T15:36:35;3.03;;;2.20;;
14167;SDS011;7163;50.626;12.922;2023-04-24T15:41:35;2.90;;;2.20;;
14167;SDS011;7163;50.626;12.922;2023-04-24T15:46:36;1.90;;;1.80;;
14167;SDS011;7163;50.626;12.922;2023-04-24T15:51:39;3.23;;;2.50;;
14167;SDS011;7163;50.626;12.922;2023-04-24T15:56:40;2.50;;;2.13;;
14167;SDS011;7163;50.626;12.922;2023-04-24T16:01:40;4.00;;;2.63;;
14167;SDS011;7163;50.626;12.922;2023-04-24T16:06:42;2.87;;;2.30;;
14167;SDS011;7163;50.626;12.922;2023-04-24T16:11:44;18.17;;;9.87;;
14167;SDS011;7163;50.626;12.922;2023-04-24T16:16:45;4.20;;;2.93;;
14167;SDS011;7163;50.626;12.922;2023-04-24T16:21:46;4.60;;;2.50;;
14167;SDS011;7163;50.626;12.922;2023-04-24T16:26:46;2.27;;;2.07;;
14167;SDS011;7163;50.626;12.922;2023-04-24T16:31:46;2.70;;;2.00;;
14167;SDS011;7163;50.626;12.922;2023-04-24T16:36:47;5.20;;;2.83;;
14167;SDS011;7163;50.626;12.922;2023-04-24T16:41:47;3.20;;;2.60;;
14167;SDS011;7163;50.626;12.922;2023-04-24T16:46:49;10.33;;;5.90;;
14167;SDS011;7163;50.626;12.922;2023-04-24T16:51:49;3.17;;;2.30;;
14167;SDS011;7163;50.626;12.922;2023-04-24T16:56:51;4.57;;;3.17;;
14167;SDS011;7163;50.626;12.922;2023-04-24T17:01:55;4.17;;;2.70;;
14167;SDS011;7163;50.626;12.922;2023-04-24T17:06:56;2.73;;;2.30;;
14167;SDS011;7163;50.626;12.922;2023-04-24T17:11:57;4.47;;;2.47;;
14167;SDS011;7163;50.626;12.922;2023-04-24T17:16:57;3.03;;;2.40;;
14167;SDS011;7163;50.626;12.922;2023-04-24T17:21:58;2.87;;;2.13;;
14167;SDS011;7163;50.626;12.922;2023-04-24T17:27:01;4.60;;;2.47;;
14167;SDS011;7163;50.626;12.922;2023-04-24T17:32:02;3.20;;;2.40;;
14167;SDS011;7163;50.626;12.922;2023-04-24T17:37:02;2.60;;;2.33;;
14167;SDS011;7163;50.626;12.922;2023-04-24T17:42:03;3.20;;;2.10;;
14167;SDS011;7163;50.626;12.922;2023-04-24T17:47:04;2.33;;;2.13;;
14167;SDS011;7163;50.626;12.922;2023-04-24T17:52:05;3.77;;;2.90;;
14167;SDS011;7163;50.626;12.922;2023-04-24T17:57:05;3.73;;;3.00;;
14167;SDS011;7163;50.626;12.922;2023-04-24T18:02:06;4.23;;;3.30;;
14167;SDS011;7163;50.626;12.922;2023-04-24T18:07:06;3.40;;;3.10;;
14167;SDS011;7163;50.626;12.922;2023-04-24T18:12:07;3.77;;;2.80;;
14167;SDS011;7163;50.626;12.922;2023-04-24T18:17:07;3.53;;;2.67;;
14167;SDS011;7163;50.626;12.922;2023-04-24T18:22:10;6.27;;;3.03;;
14167;SDS011;7163;50.626;12.922;2023-04-24T18:27:10;4.67;;;2.73;;
14167;SDS011;7163;50.626;12.922;2023-04-24T18:32:11;2.53;;;2.33;;
14167;SDS011;7163;50.626;12.922;2023-04-24T18:37:11;2.33;;;2.13;;
14167;SDS011;7163;50.626;12.922;2023-04-24T18:42:12;5.30;;;2.63;;
14167;SDS011;7163;50.626;12.922;2023-04-24T18:47:12;3.67;;;2.77;;
14167;SDS011;7163;50.626;12.922;2023-04-24T18:52:12;2.70;;;2.50;;
14167;SDS011;7163;50.626;12.922;2023-04-24T18:57:13;5.80;;;4.00;;
14167;SDS011;7163;50.626;12.922;2023-04-24T19:02:14;3.50;;;3.20;;
14167;SDS011;7163;50.626;12.922;2023-04-24T19:07:15;3.13;;;2.83;;
14167;SDS011;7163;50.626;12.922;2023-04-24T19:12:15;3.07;;;2.77;;
14167;SDS011;7163;50.626;12.922;2023-04-24T19:17:17;5.47;;;3.70;;
14167;SDS011;7163;50.626;12.922;2023-04-24T19:22:23;3.47;;;3.10;;
14167;SDS011;7163;50.626;12.922;2023-04-24T19:27:23;7.63;;;4.40;;
14167;SDS011;7163;50.626;12.922;2023-04-24T19:32:23;4.77;;;3.70;;
14167;SDS011;7163;50.626;12.922;2023-04-24T19:37:24;6.03;;;3.70;;
14167;SDS011;7163;50.626;12.922;2023-04-24T19:42:24;5.83;;;4.27;;
14167;SDS011;7163;50.626;12.922;2023-04-24T19:47:25;5.10;;;3.77;;
14167;SDS011;7163;50.626;12.922;2023-04-24T19:52:26;6.47;;;4.00;;
14167;SDS011;7163;50.626;12.922;2023-04-24T19:57:26;6.37;;;4.33;;
14167;SDS011;7163;50.626;12.922;2023-04-24T20:02:28;7.07;;;3.87;;
14167;SDS011;7163;50.626;12.922;2023-04-24T20:07:30;6.03;;;4.30;;
14167;SDS011;7163;50.626;12.922;2023-04-24T20:12:30;7.40;;;4.77;;
14167;SDS011;7163;50.626;12.922;2023-04-24T20:17:31;8.37;;;5.30;;
14167;SDS011;7163;50.626;12.922;2023-04-24T20:22:31;7.43;;;5.07;;
14167;SDS011;7163;50.626;12.922;2023-04-24T20:27:38;7.53;;;5.10;;
14167;SDS011;7163;50.626;12.922;2023-04-24T20:32:40;8.83;;;5.37;;
14167;SDS011;7163;50.626;12.922;2023-04-24T20:37:41;7.97;;;5.43;;
14167;SDS011;7163;50.626;12.922;2023-04-24T20:42:42;10.30;;;5.87;;
14167;SDS011;7163;50.626;12.922;2023-04-24T20:47:45;7.10;;;4.90;;
14167;SDS011;7163;50.626;12.922;2023-04-24T20:52:45;11.27;;;6.07;;
14167;SDS011;7163;50.626;12.922;2023-04-24T20:57:46;11.13;;;6.07;;
14167;SDS011;7163;50.626;12.922;2023-04-24T21:02:46;12.20;;;6.60;;
14167;SDS011;7163;50.626;12.922;2023-04-24T21:07:56;12.70;;;6.90;;
14167;SDS011;7163;50.626;12.922;2023-04-24T21:12:57;11.20;;;6.13;;
14167;SDS011;7163;50.626;12.922;2023-04-24T21:17:57;12.07;;;6.87;;
14167;SDS011;7163;50.626;12.922;2023-04-24T21:22:58;13.43;;;7.37;;
14167;SDS011;7163;50.626;12.922;2023-04-24T21:27:58;12.60;;;7.67;;
14167;SDS011;7163;50.626;12.922;2023-04-24T21:32:59;15.37;;;7.53;;
14167;SDS011;7163;50.626;12.922;2023-04-24T21:38:00;13.70;;;7.50;;
14167;SDS011;7163;50.626;12.922;2023-04-24T21:43:00;13.33;;;7.97;;
14167;SDS011;7163;50.626;12.922;2023-04-24T21:48:01;12.60;;;7.60;;
14167;SDS011;7163;50.626;12.922;2023-04-24T21:53:01;10.47;;;7.23;;
14167;SDS011;7163;50.626;12.922;2023-04-24T21:58:02;10.47;;;6.93;;
14167;SDS011;7163;50.626;12.922;2023-04-24T22:03:02;13.77;;;7.43;;
14167;SDS011;7163;50.626;12.922;2023-04-24T22:08:03;13.53;;;7.77;;
14167;SDS011;7163;50.626;12.922;2023-04-24T22:13:04;13.60;;;8.30;;
14167;SDS011;7163;50.626;12.922;2023-04-24T22:18:04;13.80;;;7.90;;
14167;SDS011;7163;50.626;12.922;2023-04-24T22:23:05;13.53;;;8.03;;
14167;SDS011;7163;50.626;12.922;2023-04-24T22:28:06;15.90;;;8.33;;
14167;SDS011;7163;50.626;12.922;2023-04-24T22:33:06;15.90;;;8.47;;
14167;SDS011;7163;50.626;12.922;2023-04-24T22:38:07;18.07;;;9.50;;
14167;SDS011;7163;50.626;12.922;2023-04-24T22:43:07;20.37;;;9.63;;
14167;SDS011;7163;50.626;12.922;2023-04-24T22:48:07;13.87;;;9.07;;
14167;SDS011;7163;50.626;12.922;2023-04-24T22:53:08;16.83;;;9.23;;
14167;SDS011;7163;50.626;12.922;2023-04-24T22:58:08;15.67;;;10.07;;
14167;SDS011;7163;50.626;12.922;2023-04-24T23:03:09;18.53;;;9.63;;
14167;SDS011;7163;50.626;12.922;2023-04-24T23:08:10;16.63;;;9.50;;
14167;SDS011;7163;50.626;12.922;2023-04-24T23:13:11;16.90;;;9.57;;
14167;SDS011;7163;50.626;12.922;2023-04-24T23:18:11;18.77;;;9.57;;
14167;SDS011;7163;50.626;12.922;2023-04-24T23:23:11;16.90;;;9.77;;
14167;SDS011;7163;50.626;12.922;2023-04-24T23:28:12;17.13;;;9.80;;
14167;SDS011;7163;50.626;12.922;2023-04-24T23:33:13;17.00;;;10.20;;
14167;SDS011;7163;50.626;12.922;2023-04-24T23:38:13;19.67;;;11.27;;
14167;SDS011;7163;50.626;12.922;2023-04-24T23:43:15;17.77;;;10.33;;
14167;SDS011;7163;50.626;12.922;2023-04-24T23:48:16;19.47;;;9.93;;
14167;SDS011;7163;50.626;12.922;2023-04-24T23:53:16;17.47;;;10.87;;
14167;SDS011;7163;50.626;12.922;2023-04-24T23:58:17;19.77;;;10.77;;
